Terminal Aerodrome Forecast
Issued by NWS Lake Charles, LA

Home | Current Version | Previous Version | Text Only | Print | Product List | Glossary On
Versions: 1 2 3 4 5 6 7 8 9 10 11 12 13 14 15 16 17 18 19
000
FTUS44 KLCH 282300
TAFLCH
TAF
KLCH 282320Z 2900/2924 12004KT P6SM SCT080 BKN250
     FM291400 11011KT P6SM VCSH SCT040 BKN250
      TEMPO 2918/2922 4SM -TSRA OVC030CB=

USA.gov is the U.S. government's official web portal to all federal, state and local government web resources and services.